createdAt,value
2018-11-11T00:02:01.135Z,12.60
2018-11-11T00:04:29.842Z,12.60
2018-11-11T00:06:58.561Z,12.50
2018-11-11T00:09:27.316Z,12.50
2018-11-11T00:11:56.108Z,12.50
2018-11-11T00:14:24.869Z,12.60
2018-11-11T00:16:53.578Z,12.60
2018-11-11T00:19:22.362Z,12.60
2018-11-11T00:21:51.137Z,12.50
2018-11-11T00:24:19.825Z,12.60
2018-11-11T00:26:48.627Z,12.60
2018-11-11T00:29:17.410Z,12.50
2018-11-11T00:31:46.107Z,12.50
2018-11-11T00:34:15.030Z,12.50
2018-11-11T00:36:43.706Z,12.50
2018-11-11T00:39:12.416Z,12.50
2018-11-11T00:41:41.167Z,12.60
2018-11-11T00:44:10.033Z,12.50
2018-11-11T00:46:38.736Z,12.50
2018-11-11T00:49:08.074Z,12.50
2018-11-11T00:51:36.907Z,12.40
2018-11-11T00:54:05.724Z,12.40
2018-11-11T00:56:34.450Z,12.20
2018-11-11T00:59:03.200Z,12.20
2018-11-11T01:01:31.908Z,12.10
2018-11-11T01:04:00.651Z,12.00
2018-11-11T01:06:29.390Z,11.90
2018-11-11T01:08:58.136Z,11.90
2018-11-11T01:11:26.882Z,12.00
2018-11-11T01:13:55.694Z,12.10
2018-11-11T01:16:24.393Z,12.10
2018-11-11T01:18:53.103Z,12.00
2018-11-11T01:21:21.782Z,12.00
2018-11-11T01:23:50.497Z,12.00
2018-11-11T01:26:19.183Z,12.00
2018-11-11T01:28:47.859Z,12.00
2018-11-11T01:31:16.551Z,12.00
2018-11-11T01:33:45.217Z,12.00
2018-11-11T01:36:13.919Z,12.20
2018-11-11T01:38:42.629Z,12.10
2018-11-11T01:41:11.285Z,12.10
2018-11-11T01:43:39.976Z,12.20
2018-11-11T01:46:08.632Z,12.10
2018-11-11T01:48:37.394Z,12.20
2018-11-11T01:51:06.174Z,12.30
2018-11-11T01:53:34.832Z,12.30
2018-11-11T01:56:03.573Z,12.30
2018-11-11T01:58:32.261Z,12.40
2018-11-11T02:01:00.955Z,12.40
2018-11-11T02:03:29.652Z,12.30
2018-11-11T02:05:58.281Z,12.30
2018-11-11T02:08:26.981Z,12.30
2018-11-11T02:10:55.666Z,12.20
2018-11-11T02:13:24.379Z,12.20
2018-11-11T02:15:53.126Z,12.10
2018-11-11T02:18:21.801Z,12.00
2018-11-11T02:20:50.518Z,12.10
2018-11-11T02:23:19.168Z,12.00
2018-11-11T02:25:57.558Z,12.00
2018-11-11T02:28:26.294Z,12.00
2018-11-11T02:30:54.976Z,12.00
2018-11-11T02:33:23.721Z,12.00
2018-11-11T02:35:52.365Z,12.00
2018-11-11T02:38:21.057Z,12.00
2018-11-11T02:40:49.774Z,12.00
2018-11-11T02:43:18.481Z,12.00
2018-11-11T02:45:47.188Z,12.10
2018-11-11T02:48:15.860Z,12.10
2018-11-11T02:50:44.543Z,12.20
2018-11-11T02:53:13.319Z,12.10
2018-11-11T02:55:42.055Z,12.20
2018-11-11T02:58:10.752Z,12.20
2018-11-11T03:00:39.508Z,12.10
2018-11-11T03:03:08.216Z,12.10
2018-11-11T03:05:37.305Z,12.10
2018-11-11T03:08:06.066Z,12.20
2018-11-11T03:10:34.779Z,12.20
2018-11-11T03:13:03.547Z,12.20
2018-11-11T03:15:32.279Z,12.20
2018-11-11T03:18:00.997Z,12.20
2018-11-11T03:20:29.751Z,12.20
2018-11-11T03:22:58.481Z,12.10
2018-11-11T03:25:27.209Z,12.20
2018-11-11T03:27:55.942Z,12.20
2018-11-11T03:30:24.657Z,12.20
2018-11-11T03:32:53.398Z,12.30
2018-11-11T03:35:22.158Z,12.30
2018-11-11T03:37:50.900Z,12.30
2018-11-11T03:40:20.723Z,12.20
2018-11-11T03:42:50.189Z,12.30
2018-11-11T03:45:19.863Z,12.30
2018-11-11T03:47:49.601Z,12.20
2018-11-11T03:50:18.375Z,12.20
2018-11-11T03:52:47.383Z,12.20
2018-11-11T03:55:16.188Z,12.20
2018-11-11T03:57:44.931Z,12.20
2018-11-11T04:00:14.907Z,12.20
2018-11-11T04:02:43.675Z,12.20
2018-11-11T04:05:13.594Z,12.10
2018-11-11T04:07:42.394Z,12.10
2018-11-11T04:10:13.652Z,12.00
2018-11-11T04:12:42.542Z,12.00
2018-11-11T04:15:12.735Z,11.90
2018-11-11T04:17:41.571Z,11.90
2018-11-11T04:20:12.622Z,11.90
2018-11-11T04:22:41.342Z,11.90
2018-11-11T04:25:10.441Z,11.90
2018-11-11T04:27:39.199Z,12.10
2018-11-11T04:30:09.099Z,12.10
2018-11-11T04:32:37.906Z,12.10
2018-11-11T04:35:07.222Z,12.10
2018-11-11T04:37:35.969Z,12.00
2018-11-11T04:40:05.370Z,12.00
2018-11-11T04:42:34.128Z,12.00
2018-11-11T04:45:02.867Z,12.10
2018-11-11T04:47:31.675Z,12.20
2018-11-11T04:50:00.506Z,12.20
2018-11-11T04:52:32.295Z,12.20
2018-11-11T04:55:00.965Z,12.30
2018-11-11T04:57:29.669Z,12.30
2018-11-11T04:59:58.327Z,12.30
2018-11-11T05:02:27.020Z,12.30
2018-11-11T17:52:19.708Z,12.50
2018-11-11T17:54:48.670Z,12.40
2018-11-11T17:57:17.421Z,12.40
2018-11-11T17:59:46.343Z,12.50
2018-11-11T18:02:15.076Z,12.50
2018-11-11T18:04:43.827Z,12.40
2018-11-11T18:07:12.530Z,12.40
2018-11-11T18:09:41.287Z,12.40
2018-11-11T18:12:09.953Z,12.50
2018-11-11T18:14:38.697Z,12.50
2018-11-11T18:17:07.455Z,12.40
2018-11-11T18:19:36.251Z,12.40
2018-11-11T18:22:04.990Z,12.40
2018-11-11T18:24:33.678Z,12.30
2018-11-11T18:27:02.453Z,12.30
2018-11-11T18:29:31.082Z,12.30
2018-11-11T18:31:59.770Z,12.20
2018-11-11T18:34:28.497Z,12.20
2018-11-11T18:36:57.128Z,12.20
2018-11-11T18:39:25.840Z,12.20
2018-11-11T18:41:54.487Z,12.20
2018-11-11T18:44:23.146Z,12.30
2018-11-11T18:46:51.861Z,12.20
2018-11-11T18:49:20.515Z,12.20
2018-11-11T18:51:49.235Z,12.20
2018-11-11T18:54:17.982Z,12.20
2018-11-11T18:56:46.732Z,12.20
2018-11-11T18:59:15.456Z,12.10
2018-11-11T19:01:44.233Z,12.00
2018-11-11T19:04:13.023Z,12.00
2018-11-11T19:06:41.785Z,12.00
2018-11-11T19:09:12.350Z,12.00
2018-11-11T19:11:41.119Z,12.10
2018-11-11T19:14:09.872Z,12.10
2018-11-11T19:16:39.072Z,12.10
2018-11-11T19:19:07.769Z,12.00
2018-11-11T19:21:36.854Z,12.00
2018-11-11T19:24:05.633Z,12.00
2018-11-11T19:26:34.673Z,12.00
2018-11-11T19:29:03.492Z,12.00
2018-11-11T19:31:32.290Z,12.00
2018-11-11T19:34:01.033Z,12.00
2018-11-11T19:36:29.859Z,12.00
2018-11-11T19:38:58.612Z,12.00
2018-11-11T19:41:27.371Z,12.00
2018-11-11T19:43:56.098Z,12.00
2018-11-11T19:46:24.846Z,12.00
2018-11-11T19:48:53.569Z,11.90
2018-11-11T19:51:22.381Z,11.90
2018-11-11T19:53:51.056Z,11.90
2018-11-11T19:56:20.856Z,11.90
2018-11-11T19:58:49.599Z,11.90
2018-11-11T20:01:18.419Z,11.90
2018-11-11T20:03:47.157Z,12.00
2018-11-11T20:06:15.867Z,11.90
2018-11-11T20:08:44.557Z,11.90
2018-11-11T20:11:13.226Z,11.90
2018-11-11T20:13:41.932Z,11.90
2018-11-11T20:16:10.694Z,11.80
2018-11-11T20:18:39.387Z,11.80
2018-11-11T20:21:08.107Z,11.80
2018-11-11T20:23:36.882Z,11.70
2018-11-11T20:26:05.623Z,11.80
2018-11-11T20:28:34.350Z,11.70
2018-11-11T20:31:03.150Z,11.70
2018-11-11T20:33:32.001Z,11.70
2018-11-11T20:36:00.820Z,11.70
2018-11-11T20:38:29.554Z,11.60
2018-11-11T20:40:58.315Z,11.60
2018-11-11T20:43:27.202Z,11.60
2018-11-11T20:45:55.867Z,11.60
2018-11-11T20:48:24.633Z,11.50
2018-11-11T20:50:53.404Z,11.50
2018-11-11T20:53:22.151Z,11.50
2018-11-11T20:55:50.884Z,11.50
2018-11-11T20:58:19.658Z,11.50
2018-11-11T21:00:48.390Z,11.50
2018-11-11T21:03:17.091Z,11.40
2018-11-11T21:05:45.845Z,11.40
2018-11-11T21:08:14.671Z,11.40
2018-11-11T21:10:44.039Z,11.40
2018-11-11T21:13:14.086Z,11.30
2018-11-11T21:15:42.810Z,11.20
2018-11-11T21:18:11.563Z,11.20
2018-11-11T21:20:40.642Z,11.30
2018-11-11T21:23:09.350Z,11.30
2018-11-11T21:25:38.157Z,11.30
2018-11-11T21:28:06.856Z,11.30
2018-11-11T21:30:35.564Z,11.20
2018-11-11T21:33:04.329Z,11.20
2018-11-11T21:35:33.075Z,11.20
2018-11-11T21:38:01.816Z,11.20
2018-11-11T21:40:30.458Z,11.20
2018-11-11T21:42:59.150Z,11.20
2018-11-11T21:45:28.656Z,11.20
2018-11-11T21:47:57.401Z,11.20
2018-11-11T21:50:27.040Z,11.30
2018-11-11T21:53:08.702Z,11.20
2018-11-11T21:55:37.410Z,11.20
2018-11-11T21:58:06.160Z,11.20
2018-11-11T22:00:34.898Z,11.20
2018-11-11T22:03:03.608Z,11.20
2018-11-11T22:05:32.453Z,11.20
2018-11-11T22:08:01.162Z,11.20
2018-11-11T22:10:29.884Z,11.10
2018-11-11T22:12:58.659Z,11.20
2018-11-11T22:15:27.378Z,11.20
2018-11-11T22:17:56.113Z,11.10
2018-11-11T22:20:25.904Z,11.20
2018-11-11T22:22:54.615Z,11.20
2018-11-11T22:25:23.410Z,11.20
2018-11-11T22:27:52.199Z,11.20
2018-11-11T22:30:20.880Z,11.20
2018-11-11T22:32:49.626Z,11.20
2018-11-11T22:35:18.370Z,11.20
2018-11-11T22:37:53.858Z,11.10
2018-11-11T22:40:22.557Z,11.10
2018-11-11T22:42:51.359Z,11.10
2018-11-11T22:45:20.059Z,11.10
2018-11-11T22:47:48.734Z,11.20
2018-11-11T22:50:18.736Z,11.20
2018-11-11T22:52:47.553Z,11.20
2018-11-11T22:55:16.333Z,11.20
2018-11-11T22:57:45.047Z,11.20
2018-11-11T23:00:20.389Z,11.20
2018-11-11T23:02:49.527Z,11.20
2018-11-11T23:05:19.381Z,11.20
2018-11-11T23:07:48.243Z,11.20
2018-11-11T23:10:17.137Z,11.20
2018-11-11T23:12:45.862Z,11.20
2018-11-11T23:15:16.114Z,11.20
2018-11-11T23:17:44.898Z,11.20
2018-11-11T23:20:15.443Z,11.20
2018-11-11T23:22:44.164Z,11.30
2018-11-11T23:25:14.218Z,11.30
2018-11-11T23:27:42.920Z,11.30
2018-11-11T23:30:14.624Z,11.30
2018-11-11T23:32:43.592Z,11.20
2018-11-11T23:35:12.277Z,11.20
2018-11-11T23:37:41.671Z,11.20
2018-11-11T23:40:11.987Z,11.20
2018-11-11T23:42:41.600Z,11.20
2018-11-11T23:45:10.471Z,11.20
2018-11-11T23:47:39.320Z,11.20
2018-11-11T23:50:10.205Z,11.30
2018-11-11T23:52:38.940Z,11.20
2018-11-11T23:55:09.749Z,11.30
2018-11-11T23:57:38.558Z,11.30
